Powers, Mississippi
Current Conditions -  °F | °C
As of 7:35 PM on Sunday 23 Nov 2014 (Local Time) from KPIB Reporting Station
Clear Clear  
Wind Chill: 64°   Ceiling: Unl
Heat Index: 64°   Visibility: 10mi
Dew Point: 55°   Wind: 9mph
Humidity: 73%   Direction: 180°S
Pressure: 29.67"   Gusts: 16mph
Location:  31.6875°N, 89.1116°W
Report Text: KPIB 240135Z AUTO 18008G14KT 10SM CLR 18/13 A2967 RMK AO1
Loading
Personal Weather Stations






























Interactive Weather Map New forecast layout! Learn more

10-Day Weather Forecast

Advertisements
Track Severe Weather on mobile